createdAt,value
2023-05-10T00:08:12.638Z,29.38
2023-05-10T00:18:15.741Z,32.23
2023-05-10T00:28:20.167Z,33.67
2023-05-10T00:38:23.401Z,38.13
2023-05-10T00:48:27.812Z,41.95
2023-05-10T00:58:31.956Z,44.58
2023-05-10T01:08:36.339Z,50.83
2023-05-10T01:18:42.540Z,56.10
2023-05-10T01:29:16.035Z,61.40
2023-05-10T01:39:26.763Z,63.53
2023-05-10T01:49:35.062Z,63.60
2023-05-10T01:59:42.460Z,68.25
2023-05-10T02:09:48.513Z,61.20
2023-05-10T02:19:54.204Z,68.10
2023-05-10T02:29:58.553Z,75.43
2023-05-10T02:40:05.775Z,83.30
2023-05-10T02:50:09.607Z,78.45
2023-05-10T03:00:14.587Z,75.85
2023-05-10T03:10:18.053Z,76.60
2023-05-10T03:20:31.310Z,70.80
2023-05-10T03:30:36.719Z,59.70
2023-05-10T03:40:41.727Z,61.03
2023-05-10T03:50:45.167Z,57.25
2023-05-10T04:00:49.564Z,59.38
2023-05-10T04:10:52.576Z,73.05
2023-05-10T04:20:56.949Z,74.63
2023-05-10T04:31:03.751Z,64.45
2023-05-10T04:41:08.742Z,55.05
2023-05-10T04:51:11.707Z,43.70
2023-05-10T05:01:16.121Z,37.85
2023-05-10T05:11:19.591Z,38.72
2023-05-10T05:21:25.006Z,37.90
2023-05-10T05:31:28.191Z,37.17
2023-05-10T05:41:32.839Z,38.38
2023-05-10T06:01:40.913Z,36.90
2023-05-10T06:11:43.996Z,36.38
2023-05-10T06:21:48.405Z,37.70
2023-05-10T06:31:51.681Z,38.95
2023-05-10T06:41:56.208Z,37.42
2023-05-10T06:51:59.142Z,40.22
2023-05-10T07:02:03.575Z,37.83
2023-05-10T07:12:08.234Z,36.95
2023-05-10T07:22:14.783Z,33.08
2023-05-10T07:32:17.884Z,28.27
2023-05-10T07:42:22.363Z,23.33
2023-05-10T07:52:25.593Z,21.05
2023-05-10T08:02:31.251Z,17.27
2023-05-10T08:22:38.656Z,15.00
2023-05-10T08:32:41.810Z,12.60
2023-05-10T08:42:56.680Z,10.00
2023-05-10T08:53:02.521Z,7.55
2023-05-10T09:03:08.136Z,8.02
2023-05-10T09:13:12.688Z,6.80
2023-05-10T09:23:17.147Z,6.38
2023-05-10T09:33:20.541Z,7.45
2023-05-10T09:43:24.895Z,7.07
2023-05-10T09:53:27.858Z,6.32
2023-05-10T10:03:32.508Z,5.20
2023-05-10T10:13:35.601Z,5.07
2023-05-10T10:23:39.978Z,6.65
2023-05-10T10:33:58.060Z,7.28
2023-05-10T10:44:36.489Z,8.18
2023-05-10T10:54:39.538Z,7.85
2023-05-10T11:04:47.759Z,8.18
2023-05-10T11:14:52.434Z,8.82
2023-05-10T11:25:00.284Z,9.68
2023-05-10T11:35:09.418Z,7.10
2023-05-10T11:45:17.118Z,8.50
2023-05-10T11:55:20.405Z,10.63
2023-05-10T12:05:25.324Z,16.58
2023-05-10T12:15:28.941Z,19.65
2023-05-10T12:25:35.119Z,9.17
2023-05-10T12:35:47.072Z,11.70
2023-05-10T12:45:51.416Z,14.57
2023-05-10T12:55:54.351Z,18.25
2023-05-10T13:05:58.816Z,23.38
2023-05-10T13:16:01.771Z,26.55
2023-05-10T13:26:06.171Z,25.02
2023-05-10T13:36:09.381Z,24.58
2023-05-10T13:46:13.742Z,23.92
2023-05-10T13:56:16.958Z,24.15
2023-05-10T14:06:21.421Z,24.13
2023-05-10T14:16:24.412Z,22.95
2023-05-10T14:26:29.087Z,24.63
2023-05-10T14:36:32.738Z,26.67
2023-05-10T14:46:37.297Z,20.83
2023-05-10T15:06:44.712Z,30.92
2023-05-10T15:16:47.761Z,19.02
2023-05-10T15:26:52.020Z,18.52
2023-05-10T15:36:56.880Z,19.23
2023-05-10T15:47:01.231Z,16.83
2023-05-10T15:57:06.793Z,22.00
2023-05-10T16:07:11.113Z,19.80
2023-05-10T16:17:15.228Z,18.40
2023-05-10T16:27:19.674Z,18.00
2023-05-10T16:37:22.672Z,16.23
2023-05-10T16:47:27.491Z,16.38
2023-05-10T16:57:30.656Z,15.98
2023-05-10T17:07:34.952Z,14.18
2023-05-10T17:17:37.952Z,15.95
2023-05-10T17:27:43.145Z,17.70
2023-05-10T17:37:46.178Z,17.58
2023-05-10T17:47:50.523Z,20.27
2023-05-10T17:57:53.511Z,22.75
2023-05-10T18:07:58.264Z,18.40
2023-05-10T18:18:03.207Z,20.80
2023-05-10T18:28:08.622Z,27.30
2023-05-10T18:38:12.567Z,18.13
2023-05-10T18:48:16.933Z,21.57
2023-05-10T18:58:20.589Z,21.85
2023-05-10T19:08:24.985Z,22.50
2023-05-10T19:18:28.425Z,24.15
2023-05-10T19:28:34.213Z,23.65
2023-05-10T19:38:38.583Z,27.65
2023-05-10T19:48:43.223Z,23.07
2023-05-10T19:58:46.170Z,19.70
2023-05-10T20:08:50.992Z,23.35
2023-05-10T20:18:54.573Z,26.65
2023-05-10T20:28:58.977Z,26.65
2023-05-10T20:39:01.880Z,23.97
2023-05-10T20:49:06.231Z,32.00
2023-05-10T20:59:09.373Z,30.02
2023-05-10T21:09:13.680Z,26.55
2023-05-10T21:19:17.324Z,28.17
2023-05-10T21:29:21.611Z,32.38
2023-05-10T21:39:24.531Z,19.83
2023-05-10T21:49:28.941Z,28.67
2023-05-10T21:59:31.913Z,30.17
2023-05-10T22:09:36.274Z,34.72
2023-05-10T22:19:39.223Z,31.73
2023-05-10T22:29:43.515Z,30.83
2023-05-10T22:39:46.891Z,32.72
2023-05-10T22:49:51.143Z,33.92
2023-05-10T22:59:54.246Z,36.57
2023-05-10T23:09:58.661Z,33.53
2023-05-10T23:20:01.600Z,40.35
2023-05-10T23:30:07.187Z,37.13
2023-05-10T23:40:11.052Z,33.80
2023-05-10T23:50:15.703Z,27.93
